createdAt,value
2022-12-27T10:13:30.022Z,4.00
2022-12-27T10:19:05.686Z,4.27
2022-12-27T10:24:33.541Z,4.52
2022-12-27T10:29:37.108Z,4.58
2022-12-27T10:34:39.295Z,4.63
2022-12-27T10:39:42.724Z,4.68
2022-12-27T10:44:44.797Z,4.76
2022-12-27T10:50:10.214Z,4.71
2022-12-27T10:55:39.223Z,4.69
2022-12-27T11:00:54.307Z,4.66
2022-12-27T11:06:08.013Z,4.61
2022-12-27T11:11:27.530Z,4.62
2022-12-27T11:16:35.289Z,4.59
2022-12-27T11:21:39.624Z,4.55
2022-12-27T11:26:53.877Z,4.46
2022-12-27T11:31:57.383Z,4.42
2022-12-27T11:37:16.066Z,4.38
2022-12-27T11:42:43.563Z,4.31
2022-12-27T11:47:50.676Z,4.23
2022-12-27T11:53:14.441Z,4.21
2022-12-27T11:58:16.400Z,4.16
2022-12-27T12:03:35.422Z,4.13
2022-12-27T12:09:05.850Z,4.11
2022-12-27T12:14:26.805Z,4.06
2022-12-27T12:19:47.279Z,4.03
2022-12-27T12:25:17.706Z,4.01
2022-12-27T12:30:37.685Z,3.99
2022-12-27T12:35:58.435Z,3.97
2022-12-27T12:41:03.601Z,3.93
2022-12-27T12:46:39.091Z,3.91
2022-12-27T12:52:21.086Z,3.88
2022-12-27T12:57:54.111Z,3.84
2022-12-27T13:03:18.971Z,3.83
2022-12-27T13:08:36.401Z,3.83
2022-12-27T13:14:02.617Z,3.80
2022-12-27T13:19:35.196Z,3.78
2022-12-27T13:24:50.866Z,3.77
2022-12-27T13:30:21.806Z,3.74
2022-12-27T13:35:43.939Z,3.71
2022-12-27T13:41:01.195Z,3.68
2022-12-27T13:46:27.404Z,3.68
2022-12-27T13:51:45.483Z,3.67
2022-12-27T13:57:12.589Z,3.65
2022-12-27T14:02:32.933Z,3.63
2022-12-27T14:07:44.145Z,3.62
2022-12-27T14:12:57.342Z,3.59
2022-12-27T14:18:36.025Z,3.56
2022-12-27T14:23:44.328Z,3.54
2022-12-27T14:29:27.774Z,3.51
2022-12-27T14:34:59.063Z,3.49
2022-12-27T14:40:13.661Z,3.46
2022-12-27T14:45:57.352Z,3.44
2022-12-27T14:57:33.500Z,3.41
2022-12-27T15:03:17.373Z,3.39
2022-12-27T15:08:34.524Z,3.35
2022-12-27T15:13:39.504Z,3.33
2022-12-27T15:19:05.653Z,3.33
2022-12-27T15:24:14.036Z,3.29
2022-12-27T15:29:39.085Z,3.29
2022-12-27T15:35:04.523Z,3.30
2022-12-27T15:40:49.061Z,3.29
2022-12-27T15:46:22.222Z,3.27
2022-12-27T15:51:34.849Z,3.24
2022-12-27T15:56:49.242Z,3.23
2022-12-27T16:02:29.097Z,3.21
2022-12-27T16:08:00.568Z,3.20
2022-12-27T16:13:05.789Z,3.21
2022-12-27T16:18:31.590Z,3.21
2022-12-27T16:23:40.029Z,3.20
2022-12-27T16:28:51.878Z,3.18
2022-12-27T16:33:56.718Z,3.19
2022-12-27T16:39:32.997Z,3.19
2022-12-27T16:44:52.654Z,3.17
2022-12-27T16:50:17.418Z,3.17
2022-12-27T16:56:01.297Z,3.16
2022-12-27T17:01:07.719Z,3.14
2022-12-27T17:06:33.080Z,3.13
2022-12-27T17:12:00.634Z,3.12
2022-12-27T17:17:36.362Z,3.10
2022-12-27T17:22:41.658Z,3.09
2022-12-27T17:28:34.637Z,3.08
2022-12-27T17:33:49.236Z,3.07
2022-12-27T17:39:23.846Z,3.06
2022-12-27T17:44:40.573Z,3.05
2022-12-27T17:49:43.222Z,3.05
2022-12-27T17:55:04.049Z,3.03
2022-12-27T18:00:21.670Z,3.02
2022-12-27T18:05:29.676Z,3.00
2022-12-27T18:10:34.830Z,3.00
2022-12-27T18:15:44.612Z,2.97
2022-12-27T18:20:47.075Z,2.97
2022-12-27T18:25:52.537Z,2.95
2022-12-27T18:31:21.648Z,2.93
2022-12-27T18:36:38.933Z,2.94
2022-12-27T18:41:48.246Z,2.93
2022-12-27T18:46:54.714Z,2.92
2022-12-27T18:51:58.717Z,2.89
2022-12-27T18:57:06.310Z,2.91
2022-12-27T19:02:35.439Z,2.89
2022-12-27T19:07:38.029Z,2.89
2022-12-27T19:12:40.253Z,2.89
2022-12-27T19:17:47.984Z,2.88
2022-12-27T19:22:53.477Z,2.87
2022-12-27T19:28:11.079Z,2.87
2022-12-27T19:33:27.484Z,2.87
2022-12-27T19:38:32.679Z,2.85
2022-12-27T19:43:39.737Z,2.83
2022-12-27T19:48:42.777Z,2.82
2022-12-27T19:53:57.654Z,2.83
2022-12-27T19:59:00.539Z,2.80
